createdAt,value
2022-11-05T00:00:51.650Z,83.83
2022-11-05T00:02:11.490Z,83.57
2022-11-05T00:03:31.392Z,85.08
2022-11-05T00:04:51.540Z,83.92
2022-11-05T00:06:12.664Z,84.39
2022-11-05T00:07:40.874Z,83.93
2022-11-05T00:09:01.111Z,83.54
2022-11-05T00:10:07.180Z,83.63
2022-11-05T00:11:16.839Z,83.63
2022-11-05T00:12:38.275Z,83.89
2022-11-05T00:13:58.410Z,84.78
2022-11-05T00:15:18.365Z,84.70
2022-11-05T00:16:38.366Z,85.03
2022-11-05T00:17:40.855Z,84.56
2022-11-05T00:18:42.414Z,85.08
2022-11-05T00:19:43.935Z,84.91
2022-11-05T00:20:45.486Z,85.06
2022-11-05T00:22:05.815Z,84.81
2022-11-05T00:23:25.627Z,85.44
2022-11-05T00:24:46.090Z,86.62
2022-11-05T00:26:04.580Z,86.70
2022-11-05T00:27:06.368Z,84.99
2022-11-05T00:28:07.865Z,83.74
2022-11-05T00:29:09.384Z,84.57
2022-11-05T00:30:12.185Z,84.52
2022-11-05T00:31:14.501Z,84.75
2022-11-05T00:32:16.013Z,84.69
2022-11-05T00:33:17.614Z,84.13
2022-11-05T00:34:19.107Z,83.41
2022-11-05T00:35:22.556Z,83.69
2022-11-05T00:36:24.107Z,84.21
2022-11-05T00:37:28.123Z,83.55
2022-11-05T00:38:30.524Z,84.01
2022-11-05T00:39:32.054Z,83.05
2022-11-05T00:40:33.601Z,83.25
2022-11-05T00:41:35.126Z,82.72
2022-11-05T00:42:55.304Z,82.67
2022-11-05T00:44:15.437Z,82.36
2022-11-05T00:45:17.091Z,82.19
2022-11-05T00:46:18.607Z,82.54
2022-11-05T00:47:38.519Z,82.14
2022-11-05T00:48:58.341Z,82.73
2022-11-05T00:49:59.889Z,82.14
2022-11-05T00:51:01.523Z,82.89
2022-11-05T00:52:21.838Z,83.01
2022-11-05T00:53:23.667Z,83.47
2022-11-05T00:54:25.181Z,83.60
2022-11-05T00:55:33.390Z,83.25
2022-11-05T00:56:34.907Z,83.22
2022-11-05T00:57:36.430Z,83.42
2022-11-05T00:58:38.143Z,83.00
2022-11-05T00:59:39.662Z,82.65
2022-11-05T01:00:43.913Z,82.52
2022-11-05T01:01:45.536Z,81.43
2022-11-05T01:02:47.300Z,80.83
2022-11-05T01:03:51.669Z,81.06
2022-11-05T01:04:53.600Z,80.48
2022-11-05T01:06:05.522Z,80.59
2022-11-05T01:07:07.019Z,80.36
2022-11-05T01:08:09.819Z,80.42
2022-11-05T01:09:11.407Z,79.93
2022-11-05T01:10:13.213Z,79.90
2022-11-05T01:11:35.275Z,79.67
2022-11-05T01:12:36.828Z,80.32
2022-11-05T01:13:40.356Z,81.09
2022-11-05T01:14:41.966Z,81.17
2022-11-05T01:15:43.666Z,81.31
2022-11-05T01:16:45.553Z,81.35
2022-11-05T01:17:47.626Z,81.14
2022-11-05T01:18:49.131Z,81.49
2022-11-05T01:19:51.201Z,80.81
2022-11-05T01:20:53.129Z,81.31
2022-11-05T01:21:54.663Z,80.80
2022-11-05T01:22:56.198Z,81.13
2022-11-05T01:23:57.738Z,81.24
2022-11-05T01:24:59.485Z,81.29
2022-11-05T01:26:01.007Z,80.96
2022-11-05T01:27:02.504Z,80.86
2022-11-05T01:28:04.762Z,81.04
2022-11-05T01:29:06.295Z,81.49
2022-11-05T01:30:08.715Z,81.35
2022-11-05T01:31:10.328Z,81.08
2022-11-05T01:32:11.858Z,80.24
2022-11-05T01:33:13.627Z,80.23
2022-11-05T01:34:15.358Z,80.68
2022-11-05T01:35:18.039Z,80.76
2022-11-05T01:36:19.574Z,80.67
2022-11-05T01:37:21.123Z,81.00
2022-11-05T01:38:22.731Z,80.53
2022-11-05T01:39:24.287Z,80.52
2022-11-05T01:40:26.497Z,81.10
2022-11-05T01:41:28.054Z,81.09
2022-11-05T01:42:33.084Z,81.65
2022-11-05T01:43:56.440Z,83.42
2022-11-05T01:45:20.141Z,84.24
2022-11-05T01:46:26.782Z,84.04
2022-11-05T01:47:46.594Z,83.75
2022-11-05T01:48:51.746Z,83.19
2022-11-05T01:49:53.940Z,83.70
2022-11-05T01:51:01.230Z,83.53
2022-11-05T01:52:04.812Z,82.69
2022-11-05T01:53:26.447Z,82.57
2022-11-05T01:54:32.111Z,82.04
2022-11-05T01:55:37.045Z,81.96
2022-11-05T01:56:43.682Z,81.31
2022-11-05T01:57:45.381Z,81.68
2022-11-05T01:58:59.295Z,82.18
2022-11-05T02:00:02.183Z,83.20
2022-11-05T02:01:03.763Z,82.92
2022-11-05T02:02:07.813Z,82.77
2022-11-05T02:03:10.125Z,82.39
2022-11-05T02:04:17.729Z,82.13
2022-11-05T02:05:19.363Z,84.05
2022-11-05T02:06:21.529Z,84.47
2022-11-05T02:07:26.240Z,84.97
2022-11-05T02:08:57.115Z,84.98
2022-11-05T02:10:08.182Z,85.71
2022-11-05T02:11:13.159Z,85.42
2022-11-05T02:12:14.999Z,84.92
2022-11-05T02:13:17.015Z,84.76
2022-11-05T02:14:21.795Z,85.82
2022-11-05T02:15:55.793Z,85.97
2022-11-05T02:17:36.103Z,84.82
2022-11-05T02:18:53.018Z,84.92
2022-11-05T02:20:39.592Z,85.16
2022-11-05T02:21:59.279Z,85.92
2022-11-05T02:23:22.546Z,85.81
2022-11-05T02:24:48.863Z,85.46
2022-11-05T02:26:18.280Z,85.79
2022-11-05T02:27:22.116Z,85.58
2022-11-05T02:29:05.217Z,85.36
2022-11-05T02:30:07.336Z,85.15
2022-11-05T02:31:17.598Z,85.28
2022-11-05T02:32:40.658Z,84.75
2022-11-05T02:33:56.635Z,85.29
2022-11-05T02:35:26.990Z,85.23
2022-11-05T02:36:49.418Z,84.58
2022-11-05T02:38:02.459Z,84.26
2022-11-05T02:39:25.179Z,84.10
2022-11-05T02:40:57.870Z,84.22
2022-11-05T02:42:38.194Z,84.38
2022-11-05T02:43:51.510Z,86.23
2022-11-05T02:44:58.950Z,86.14
2022-11-05T02:46:21.512Z,85.71
2022-11-05T02:47:33.184Z,85.77
2022-11-05T02:48:40.674Z,86.16
2022-11-05T02:49:45.263Z,86.92
2022-11-05T02:50:54.636Z,87.39
2022-11-05T02:52:04.283Z,87.87
2022-11-05T02:53:20.201Z,88.07
2022-11-05T02:54:29.021Z,88.98
2022-11-05T02:55:59.508Z,89.16
2022-11-05T02:57:03.763Z,88.65
2022-11-05T02:58:06.125Z,89.91
2022-11-05T02:59:07.730Z,89.27
2022-11-05T03:00:45.554Z,88.84
2022-11-05T03:01:48.593Z,88.68
2022-11-05T03:02:50.337Z,88.48
2022-11-05T03:03:55.825Z,88.62
2022-11-05T03:04:57.860Z,87.20
2022-11-05T03:06:10.679Z,87.07
2022-11-05T03:07:29.192Z,86.66
2022-11-05T03:08:45.855Z,86.40
2022-11-05T03:09:59.523Z,86.14
2022-11-05T03:11:17.733Z,85.79
2022-11-05T03:12:34.030Z,84.87
2022-11-05T03:13:54.057Z,84.93
2022-11-05T03:15:16.567Z,84.31
2022-11-05T03:16:42.361Z,83.98
2022-11-05T03:17:49.457Z,83.60
2022-11-05T03:19:12.890Z,84.77
2022-11-05T03:20:33.077Z,85.59
2022-11-05T03:21:54.884Z,86.99
2022-11-05T03:23:10.046Z,88.14
2022-11-05T03:24:26.533Z,89.35
2022-11-05T03:25:30.440Z,89.16
2022-11-05T03:26:41.529Z,89.02
2022-11-05T03:27:47.830Z,89.77
2022-11-05T03:29:16.582Z,89.12
2022-11-05T03:30:19.852Z,88.29
2022-11-05T03:31:23.538Z,88.66
2022-11-05T03:32:27.347Z,88.69
2022-11-05T03:33:31.404Z,88.48
2022-11-05T03:34:38.896Z,90.43
2022-11-05T03:35:46.536Z,90.51
2022-11-05T03:36:52.295Z,90.15
2022-11-05T03:38:00.469Z,90.05
2022-11-05T03:39:07.839Z,90.85
2022-11-05T03:40:12.205Z,91.54
2022-11-05T03:41:16.334Z,92.33
2022-11-05T03:42:21.400Z,92.08
2022-11-05T03:43:27.501Z,92.31
2022-11-05T03:44:34.555Z,93.12
2022-11-05T03:45:44.562Z,92.30
2022-11-05T03:46:49.439Z,91.06
2022-11-05T03:47:55.508Z,89.97
2022-11-05T03:49:01.740Z,89.96
2022-11-05T03:50:20.324Z,89.80
2022-11-05T03:51:43.986Z,90.04
2022-11-05T03:52:53.498Z,90.94
2022-11-05T03:54:00.197Z,90.75
2022-11-05T03:55:01.937Z,91.98
2022-11-05T03:56:10.535Z,93.02
2022-11-05T03:57:22.392Z,94.71
2022-11-05T03:58:34.725Z,96.12
2022-11-05T03:59:42.830Z,96.95
2022-11-05T04:00:44.680Z,94.55
2022-11-05T04:01:48.051Z,95.42
2022-11-05T04:02:50.381Z,94.54
2022-11-05T04:03:51.961Z,94.97
2022-11-05T04:04:54.866Z,95.72
2022-11-05T04:06:15.240Z,96.11
2022-11-05T04:07:35.827Z,95.88
2022-11-05T04:08:55.980Z,94.30
2022-11-05T04:10:16.380Z,94.69
2022-11-05T04:11:36.797Z,97.30
2022-11-05T04:12:57.068Z,98.43
2022-11-05T04:13:58.582Z,97.86
2022-11-05T04:15:00.227Z,98.18
2022-11-05T04:16:39.871Z,97.87
2022-11-05T04:17:41.375Z,97.40
2022-11-05T04:18:43.392Z,96.63
2022-11-05T04:20:04.354Z,96.50
2022-11-05T04:21:25.818Z,97.02
2022-11-05T04:22:48.503Z,97.05
2022-11-05T04:24:08.511Z,96.75
2022-11-05T04:25:10.910Z,97.43
2022-11-05T04:26:12.414Z,97.53
2022-11-05T04:27:13.943Z,96.36
2022-11-05T04:28:15.859Z,96.14
2022-11-05T04:29:36.017Z,95.81
2022-11-05T04:30:37.584Z,95.11
2022-11-05T04:31:39.122Z,94.80
2022-11-05T04:32:40.647Z,95.29
2022-11-05T04:33:42.195Z,94.33
2022-11-05T04:34:43.728Z,94.02
2022-11-05T04:35:49.287Z,93.68
2022-11-05T04:36:52.418Z,93.06
2022-11-05T04:37:54.074Z,93.24
2022-11-05T04:38:56.059Z,93.07
2022-11-05T04:39:57.647Z,93.25
2022-11-05T04:41:13.339Z,93.55
2022-11-05T04:42:14.897Z,93.76
2022-11-05T04:43:19.356Z,94.14
2022-11-05T04:44:21.160Z,95.30
2022-11-05T04:45:24.713Z,96.05
2022-11-05T04:46:26.271Z,96.20
2022-11-05T04:47:27.927Z,97.00
2022-11-05T04:48:30.087Z,97.11
2022-11-05T04:49:31.599Z,98.22
2022-11-05T04:50:33.213Z,98.37
2022-11-05T04:51:34.806Z,98.38
2022-11-05T04:52:36.462Z,97.74
2022-11-05T04:53:37.955Z,97.19
2022-11-05T04:54:39.546Z,96.84
2022-11-05T04:55:41.064Z,97.03
2022-11-05T04:56:42.583Z,97.67
2022-11-05T04:57:47.963Z,95.94
2022-11-05T04:58:49.917Z,96.22
2022-11-05T04:59:52.184Z,96.16
2022-11-05T05:00:53.730Z,96.18
2022-11-05T05:01:55.355Z,96.95
2022-11-05T05:02:56.947Z,96.57
2022-11-05T05:03:58.463Z,96.17
2022-11-05T05:05:00.152Z,97.17
2022-11-05T05:06:04.020Z,94.83
2022-11-05T05:07:05.917Z,95.03
2022-11-05T05:08:07.432Z,93.27
2022-11-05T05:09:08.950Z,93.80
2022-11-05T05:10:14.235Z,91.62
2022-11-05T05:11:18.295Z,92.64
2022-11-05T05:12:19.976Z,91.72
2022-11-05T05:13:21.668Z,90.13
2022-11-05T05:14:23.289Z,90.18
2022-11-05T05:15:24.818Z,91.06
2022-11-05T05:16:27.297Z,91.09
2022-11-05T05:17:28.957Z,91.01
2022-11-05T05:18:30.447Z,90.84
2022-11-05T05:19:51.939Z,90.62
2022-11-05T05:21:16.767Z,89.97
2022-11-05T05:22:18.294Z,89.19
2022-11-05T05:23:19.828Z,87.78
2022-11-05T05:24:21.690Z,87.81
2022-11-05T05:25:23.337Z,87.92
2022-11-05T05:26:24.938Z,87.71
2022-11-05T05:27:31.102Z,88.24
2022-11-05T05:28:32.692Z,88.10
2022-11-05T05:29:34.203Z,87.95
2022-11-05T05:30:35.702Z,87.94
2022-11-05T05:31:37.961Z,87.71
2022-11-05T05:32:39.470Z,88.00
2022-11-05T05:33:41.240Z,88.89
2022-11-05T05:34:42.861Z,88.41
2022-11-05T05:35:44.375Z,88.02
2022-11-05T05:36:45.962Z,88.15
2022-11-05T05:37:47.475Z,87.69
2022-11-05T05:38:49.049Z,88.45
2022-11-05T05:39:50.659Z,88.80
2022-11-05T05:40:52.250Z,88.64
2022-11-05T05:41:54.124Z,89.38
2022-11-05T05:42:55.986Z,89.39
2022-11-05T05:43:57.537Z,89.80
2022-11-05T05:44:59.059Z,90.60
2022-11-05T05:46:05.191Z,90.55
2022-11-05T05:47:06.762Z,90.74
2022-11-05T05:48:08.342Z,91.10
2022-11-05T05:49:12.661Z,91.37
2022-11-05T05:50:14.384Z,91.46
2022-11-05T05:51:16.214Z,91.59
2022-11-05T05:52:17.932Z,91.30
2022-11-05T05:53:19.459Z,92.17
2022-11-05T05:54:26.311Z,92.60
2022-11-05T05:55:30.707Z,92.75
2022-11-05T05:56:32.233Z,92.81
2022-11-05T05:57:34.310Z,92.39
2022-11-05T05:58:39.268Z,91.57
2022-11-05T05:59:40.803Z,91.75
2022-11-05T06:00:42.327Z,91.82
2022-11-05T06:01:44.020Z,91.68
2022-11-05T06:02:45.740Z,91.25
2022-11-05T06:03:48.733Z,90.50
2022-11-05T06:04:50.305Z,90.45
2022-11-05T06:05:51.810Z,90.27
2022-11-05T06:06:53.299Z,90.18
2022-11-05T06:07:56.415Z,89.12
2022-11-05T06:08:57.979Z,88.05
2022-11-05T06:09:59.528Z,87.86
2022-11-05T06:11:02.209Z,87.20
2022-11-05T06:12:04.025Z,86.21
2022-11-05T06:13:05.565Z,85.91
2022-11-05T06:14:10.377Z,85.53
2022-11-05T06:15:11.932Z,84.59
2022-11-05T06:16:13.564Z,82.81
2022-11-05T06:17:15.191Z,83.97
2022-11-05T06:18:16.687Z,83.08
2022-11-05T06:19:18.217Z,83.70
2022-11-05T06:20:19.775Z,83.78
2022-11-05T06:21:21.342Z,84.53
2022-11-05T06:22:22.857Z,84.62
2022-11-05T06:23:24.451Z,84.91
2022-11-05T06:24:25.999Z,85.32
2022-11-05T06:25:27.557Z,85.59
2022-11-05T06:26:29.489Z,85.67
2022-11-05T06:27:31.401Z,85.73
2022-11-05T06:28:33.615Z,86.59
2022-11-05T06:29:35.115Z,85.90
2022-11-05T06:30:36.631Z,85.42
2022-11-05T06:31:38.409Z,84.98
2022-11-05T06:32:40.021Z,84.31
2022-11-05T06:33:41.742Z,83.59
2022-11-05T06:34:43.290Z,82.74
2022-11-05T06:35:44.792Z,82.03
2022-11-05T06:36:46.338Z,82.74
2022-11-05T06:37:47.852Z,82.46
2022-11-05T06:38:49.494Z,80.98
2022-11-05T06:39:51.058Z,82.54
2022-11-05T06:40:52.595Z,82.45
2022-11-05T06:42:17.465Z,80.52
2022-11-05T06:43:15.646Z,80.16
2022-11-05T06:44:17.296Z,79.82
2022-11-05T06:45:19.046Z,80.99
2022-11-05T06:46:20.669Z,80.98
2022-11-05T06:47:22.308Z,81.30
2022-11-05T06:48:25.471Z,82.07
2022-11-05T06:49:27.069Z,83.01
2022-11-05T06:50:29.000Z,83.84
2022-11-05T06:51:30.574Z,83.83
2022-11-05T06:52:34.809Z,84.28
2022-11-05T06:53:51.699Z,84.05
2022-11-05T06:54:53.388Z,83.48
2022-11-05T06:55:55.068Z,83.47
2022-11-05T06:56:56.659Z,82.87
2022-11-05T06:57:58.274Z,82.89
2022-11-05T06:58:59.850Z,83.68
2022-11-05T07:00:05.760Z,83.75
2022-11-05T07:01:10.519Z,83.65
2022-11-05T07:02:13.568Z,83.70
2022-11-05T07:03:15.449Z,83.69
2022-11-05T07:04:17.133Z,82.96
2022-11-05T07:05:18.731Z,83.31
2022-11-05T07:06:22.138Z,83.26
2022-11-05T07:07:23.684Z,83.95
2022-11-05T07:08:25.326Z,83.93
2022-11-05T07:09:28.458Z,83.42
2022-11-05T07:10:30.059Z,83.73
2022-11-05T07:11:31.800Z,83.68
2022-11-05T07:12:33.403Z,83.98
2022-11-05T07:13:34.983Z,83.51
2022-11-05T07:14:36.585Z,83.22
2022-11-05T07:15:38.527Z,83.76
2022-11-05T07:16:40.132Z,82.81
2022-11-05T07:17:41.991Z,82.48
2022-11-05T07:18:43.834Z,81.69
2022-11-05T07:19:45.370Z,81.92
2022-11-05T07:20:46.978Z,81.29
2022-11-05T07:21:48.806Z,79.82
2022-11-05T07:22:50.366Z,81.45
2022-11-05T07:23:51.983Z,81.30
2022-11-05T07:24:53.516Z,80.00
2022-11-05T07:25:55.081Z,79.83
2022-11-05T07:26:56.615Z,79.50
2022-11-05T07:27:58.589Z,78.69
2022-11-05T07:29:00.138Z,78.32
2022-11-05T07:30:06.636Z,77.54
2022-11-05T07:31:08.185Z,77.80
2022-11-05T07:32:09.879Z,76.25
2022-11-05T07:33:11.997Z,75.81
2022-11-05T07:34:13.791Z,75.45
2022-11-05T07:35:15.348Z,74.38
2022-11-05T07:36:16.871Z,73.42
2022-11-05T07:37:18.442Z,72.73
2022-11-05T07:38:19.956Z,71.25
2022-11-05T07:39:21.618Z,71.26
2022-11-05T07:40:26.210Z,71.20
2022-11-05T07:41:30.754Z,71.29
2022-11-05T07:42:35.281Z,70.60
2022-11-05T07:43:36.830Z,69.77
2022-11-05T07:44:38.349Z,69.48
2022-11-05T07:45:39.886Z,69.96
2022-11-05T07:46:42.028Z,69.53
2022-11-05T07:47:52.298Z,69.47
2022-11-05T07:48:53.837Z,68.53
2022-11-05T07:49:55.377Z,68.29
2022-11-05T07:50:56.925Z,68.68
2022-11-05T07:51:58.668Z,68.56
2022-11-05T07:53:02.232Z,68.65
2022-11-05T07:54:03.963Z,69.28
2022-11-05T07:55:06.105Z,69.42
2022-11-05T07:56:08.554Z,68.07
2022-11-05T07:57:10.268Z,67.60
2022-11-05T07:58:11.942Z,67.82
2022-11-05T07:59:13.478Z,67.99
2022-11-05T08:00:18.031Z,67.45
2022-11-05T08:01:19.731Z,67.45
2022-11-05T08:02:21.705Z,67.33
2022-11-05T08:03:23.564Z,67.40
2022-11-05T08:04:25.264Z,66.13
2022-11-05T08:05:27.800Z,67.38
2022-11-05T08:06:29.323Z,67.37
2022-11-05T08:07:30.859Z,66.97
2022-11-05T08:08:32.789Z,64.11
2022-11-05T08:09:34.601Z,64.45
2022-11-05T08:10:37.055Z,63.88
2022-11-05T08:11:38.565Z,63.93
2022-11-05T08:12:40.073Z,63.54
2022-11-05T08:13:42.856Z,63.58
2022-11-05T08:14:44.408Z,62.63
2022-11-05T08:15:45.925Z,62.63
2022-11-05T08:16:49.344Z,62.61
2022-11-05T08:17:58.078Z,63.61
2022-11-05T08:18:59.646Z,63.21
2022-11-05T08:20:01.238Z,63.66
2022-11-05T08:21:04.472Z,63.75
2022-11-05T08:22:06.004Z,64.09
2022-11-05T08:23:08.004Z,63.49
2022-11-05T08:24:09.841Z,64.33
2022-11-05T08:25:13.023Z,65.44
2022-11-05T08:26:14.624Z,66.12
2022-11-05T08:27:16.237Z,66.67
2022-11-05T08:28:17.920Z,66.49
2022-11-05T08:29:19.451Z,66.64
2022-11-05T08:30:20.981Z,67.85
2022-11-05T08:31:22.527Z,67.96
2022-11-05T08:32:24.041Z,67.56
2022-11-05T08:33:26.290Z,67.36
2022-11-05T08:34:27.807Z,66.63
2022-11-05T08:35:29.797Z,66.22
2022-11-05T08:36:31.360Z,66.46
2022-11-05T08:37:32.880Z,66.41
2022-11-05T08:38:34.460Z,66.75
2022-11-05T08:39:35.987Z,66.48
2022-11-05T08:40:37.783Z,66.14
2022-11-05T08:41:40.614Z,65.73
2022-11-05T08:42:42.131Z,65.73
2022-11-05T08:43:43.638Z,65.84
2022-11-05T08:44:45.236Z,66.22
2022-11-05T08:45:46.919Z,65.86
2022-11-05T08:46:48.603Z,65.33
2022-11-05T08:47:50.462Z,66.08
2022-11-05T08:48:52.043Z,65.69
2022-11-05T08:49:54.614Z,66.12
2022-11-05T08:50:56.170Z,66.34
2022-11-05T08:51:58.004Z,66.52
2022-11-05T08:52:59.695Z,66.84
2022-11-05T08:54:01.318Z,66.79
2022-11-05T08:55:02.847Z,66.77
2022-11-05T08:56:04.521Z,66.57
2022-11-05T08:57:06.041Z,65.91
2022-11-05T08:58:12.554Z,66.38
2022-11-05T08:59:14.356Z,64.99
2022-11-05T09:00:16.362Z,65.21
2022-11-05T09:01:18.053Z,64.80
2022-11-05T09:02:19.732Z,64.80
2022-11-05T09:03:21.391Z,63.90
2022-11-05T09:04:23.193Z,62.80
2022-11-05T09:05:24.718Z,62.26
2022-11-05T09:06:26.259Z,61.92
2022-11-05T09:07:27.802Z,62.87
2022-11-05T09:08:29.456Z,62.83
2022-11-05T09:09:31.070Z,62.94
2022-11-05T09:10:32.835Z,62.54
2022-11-05T09:12:05.317Z,62.44
2022-11-05T09:12:56.502Z,61.94
2022-11-05T09:13:58.057Z,61.66
2022-11-05T09:14:59.565Z,61.13
2022-11-05T09:16:02.032Z,61.35
2022-11-05T09:17:03.697Z,61.22
2022-11-05T09:18:05.698Z,61.21
2022-11-05T09:19:07.207Z,60.28
2022-11-05T09:20:10.968Z,61.10
2022-11-05T09:21:12.635Z,61.24
2022-11-05T09:22:14.538Z,61.34
2022-11-05T09:23:16.255Z,60.51
2022-11-05T09:24:17.805Z,61.00
2022-11-05T09:25:19.361Z,60.67
2022-11-05T09:26:20.897Z,60.34
2022-11-05T09:27:22.560Z,60.15
2022-11-05T09:28:25.516Z,59.91
2022-11-05T09:29:27.051Z,59.99
2022-11-05T09:30:28.567Z,58.18
2022-11-05T09:31:30.121Z,57.92
2022-11-05T09:32:32.497Z,58.78
2022-11-05T09:33:35.619Z,56.92
2022-11-05T09:34:37.141Z,56.64
2022-11-05T09:35:40.207Z,56.05
2022-11-05T09:36:41.770Z,56.68
2022-11-05T09:37:45.994Z,56.57
2022-11-05T09:38:47.585Z,55.49
2022-11-05T09:39:49.179Z,55.82
2022-11-05T09:41:02.634Z,55.93
2022-11-05T09:42:08.469Z,55.21
2022-11-05T09:43:18.858Z,55.97
2022-11-05T09:44:23.807Z,54.88
2022-11-05T09:45:28.459Z,54.60
2022-11-05T09:47:01.639Z,54.13
2022-11-05T09:48:14.825Z,54.47
2022-11-05T09:49:39.966Z,54.35
2022-11-05T09:50:45.246Z,55.61
2022-11-05T09:51:46.854Z,55.18
2022-11-05T09:52:48.444Z,54.78
2022-11-05T09:53:50.792Z,54.77
2022-11-05T09:54:53.273Z,55.57
2022-11-05T09:55:58.707Z,55.58
2022-11-05T09:57:02.761Z,56.10
2022-11-05T09:58:14.708Z,55.44
2022-11-05T09:59:18.138Z,55.39
2022-11-05T10:00:20.128Z,55.02
2022-11-05T10:01:26.137Z,54.54
2022-11-05T10:02:38.677Z,55.14
2022-11-05T10:03:46.550Z,53.79
2022-11-05T10:04:53.162Z,54.08
2022-11-05T10:06:03.569Z,55.20
2022-11-05T10:07:07.614Z,56.36
2022-11-05T10:08:22.389Z,55.94
2022-11-05T10:09:31.466Z,55.50
2022-11-05T10:10:41.085Z,55.13
2022-11-05T10:11:50.702Z,55.02
2022-11-05T10:12:56.141Z,54.13
2022-11-05T10:14:06.169Z,53.78
2022-11-05T10:15:17.134Z,54.10
2022-11-05T10:16:35.165Z,53.72
2022-11-05T10:17:40.162Z,53.25
2022-11-05T10:18:47.447Z,53.91
2022-11-05T10:20:02.662Z,53.78
2022-11-05T10:21:05.483Z,53.89
2022-11-05T10:22:13.664Z,54.00
2022-11-05T10:23:18.131Z,54.22
2022-11-05T10:24:21.341Z,53.91
2022-11-05T10:25:27.477Z,53.67
2022-11-05T10:26:29.893Z,53.47
2022-11-05T10:27:35.750Z,53.63
2022-11-05T10:28:37.498Z,54.83
2022-11-05T10:29:39.074Z,54.95
2022-11-05T10:30:40.610Z,54.93
2022-11-05T10:31:43.214Z,54.80
2022-11-05T10:32:46.439Z,53.83
2022-11-05T10:34:00.332Z,53.59
2022-11-05T10:35:05.263Z,53.81
2022-11-05T10:36:11.656Z,53.69
2022-11-05T10:37:13.271Z,54.41
2022-11-05T10:38:15.316Z,54.18
2022-11-05T10:39:19.488Z,53.72
2022-11-05T10:40:29.943Z,53.50
2022-11-05T10:41:44.353Z,52.73
2022-11-05T10:43:02.365Z,52.84
2022-11-05T10:44:19.047Z,52.37
2022-11-05T10:45:31.546Z,52.62
2022-11-05T10:46:53.305Z,52.75
2022-11-05T10:48:22.541Z,52.51
2022-11-05T10:49:36.225Z,51.90
2022-11-05T10:50:39.393Z,52.44
2022-11-05T10:51:40.944Z,52.51
2022-11-05T10:52:55.787Z,51.84
2022-11-05T10:54:03.617Z,51.01
2022-11-05T10:55:16.334Z,49.71
2022-11-05T10:56:32.107Z,50.43
2022-11-05T10:57:39.459Z,49.60
2022-11-05T10:58:54.916Z,48.69
2022-11-05T11:00:22.269Z,48.44
2022-11-05T11:01:26.234Z,48.45
2022-11-05T11:02:30.291Z,48.71
2022-11-05T11:03:46.854Z,48.67
2022-11-05T11:04:53.681Z,48.71
2022-11-05T11:06:04.819Z,48.81
2022-11-05T11:07:21.414Z,49.25
2022-11-05T11:08:24.951Z,48.50
2022-11-05T11:09:36.435Z,48.88
2022-11-05T11:10:48.855Z,47.65
2022-11-05T11:12:02.613Z,47.92
2022-11-05T11:13:05.738Z,48.61
2022-11-05T11:14:11.798Z,48.21
2022-11-05T11:15:33.601Z,48.17
2022-11-05T11:16:38.480Z,48.29
2022-11-05T11:17:40.029Z,48.30
2022-11-05T11:18:43.742Z,47.99
2022-11-05T11:19:45.426Z,48.01
2022-11-05T11:20:47.003Z,48.19
2022-11-05T11:22:13.028Z,48.44
2022-11-05T11:23:16.903Z,48.22
2022-11-05T11:24:23.294Z,48.58
2022-11-05T11:25:27.002Z,48.57
2022-11-05T11:26:39.310Z,48.38
2022-11-05T11:27:40.942Z,48.11
2022-11-05T11:29:08.385Z,48.34
2022-11-05T11:30:17.924Z,48.04
2022-11-05T11:31:25.316Z,48.59
2022-11-05T11:32:33.243Z,48.74
2022-11-05T11:33:37.837Z,49.44
2022-11-05T11:34:40.625Z,48.45
2022-11-05T11:35:46.308Z,48.80
2022-11-05T11:36:53.679Z,49.16
2022-11-05T11:37:57.147Z,49.28
2022-11-05T11:39:01.133Z,48.69
2022-11-05T11:40:21.482Z,49.27
2022-11-05T11:41:27.255Z,48.47
2022-11-05T11:42:36.163Z,49.04
2022-11-05T11:43:41.256Z,48.93
2022-11-05T11:44:46.126Z,49.33
2022-11-05T11:45:53.787Z,49.05
2022-11-05T11:47:10.926Z,49.55
2022-11-05T11:48:22.874Z,49.00
2022-11-05T11:49:46.375Z,49.18
2022-11-05T11:50:49.322Z,49.72
2022-11-05T11:51:59.725Z,49.83
2022-11-05T11:53:30.377Z,48.72
2022-11-05T11:54:34.822Z,48.50
2022-11-05T11:55:36.452Z,49.55
2022-11-05T11:56:46.317Z,49.14
2022-11-05T11:57:50.967Z,48.22
2022-11-05T11:58:57.462Z,47.98
2022-11-05T12:00:08.888Z,48.49
2022-11-05T12:01:28.793Z,48.45
2022-11-05T12:02:40.560Z,48.61
2022-11-05T12:03:51.220Z,48.90
2022-11-05T12:05:26.914Z,48.48
2022-11-05T12:06:54.195Z,48.43
2022-11-05T12:08:01.504Z,48.69
2022-11-05T12:09:35.081Z,48.77
2022-11-05T12:10:53.474Z,48.81
2022-11-05T12:11:59.432Z,48.02
2022-11-05T12:13:14.644Z,47.98
2022-11-05T12:15:02.818Z,48.12
2022-11-05T12:16:33.910Z,48.20
2022-11-05T12:18:01.266Z,48.86
2022-11-05T12:19:05.388Z,47.93
2022-11-05T12:20:15.880Z,47.82
2022-11-05T12:21:52.139Z,48.31
2022-11-05T12:23:19.950Z,48.50
2022-11-05T12:24:21.877Z,48.98
2022-11-05T12:25:34.047Z,48.46
2022-11-05T12:26:54.860Z,48.56
2022-11-05T12:28:24.251Z,48.09
2022-11-05T12:29:38.564Z,47.88
2022-11-05T12:30:46.254Z,46.97
2022-11-05T12:31:56.912Z,46.58
2022-11-05T12:33:21.731Z,46.67
2022-11-05T12:34:29.165Z,46.59
2022-11-05T12:35:48.854Z,46.51
2022-11-05T12:37:02.090Z,45.96
2022-11-05T12:38:31.815Z,46.13
2022-11-05T12:39:54.116Z,46.24
2022-11-05T12:41:10.797Z,44.78
2022-11-05T12:42:29.465Z,45.83
2022-11-05T12:44:09.285Z,45.69
2022-11-05T12:45:19.639Z,44.74
2022-11-05T12:46:53.335Z,44.55
2022-11-05T12:47:57.608Z,44.51
2022-11-05T12:49:01.784Z,45.05
2022-11-05T12:50:27.725Z,44.90
2022-11-05T12:51:50.163Z,44.63
2022-11-05T12:53:13.263Z,44.35
2022-11-05T12:54:21.044Z,44.46
2022-11-05T12:55:25.411Z,44.34
2022-11-05T12:56:41.362Z,44.23
2022-11-05T12:57:47.667Z,44.53
2022-11-05T12:59:01.211Z,44.30
2022-11-05T13:00:27.027Z,44.16
2022-11-05T13:01:36.914Z,44.17
2022-11-05T13:02:49.099Z,44.22
2022-11-05T13:04:01.538Z,43.81
2022-11-05T13:05:33.430Z,44.06
2022-11-05T13:06:40.393Z,43.63
2022-11-05T13:07:53.281Z,43.46
2022-11-05T13:09:04.365Z,43.70
2022-11-05T13:10:23.455Z,43.77
2022-11-05T13:12:02.028Z,42.89
2022-11-05T13:13:18.832Z,43.41
2022-11-05T13:14:28.278Z,42.85
2022-11-05T13:15:37.366Z,43.80
2022-11-05T13:16:46.209Z,44.28
2022-11-05T13:17:52.861Z,43.85
2022-11-05T13:19:19.159Z,43.51
2022-11-05T13:20:24.463Z,43.97
2022-11-05T13:21:29.523Z,43.69
2022-11-05T13:22:46.714Z,43.43
2022-11-05T13:23:54.816Z,43.27
2022-11-05T13:25:01.091Z,43.75
2022-11-05T13:26:11.788Z,43.30
2022-11-05T13:27:19.027Z,43.92
2022-11-05T13:28:23.298Z,43.79
2022-11-05T13:29:35.282Z,43.63
2022-11-05T13:30:42.384Z,44.08
2022-11-05T13:31:51.708Z,43.34
2022-11-05T13:33:00.104Z,43.81
2022-11-05T13:34:06.860Z,43.96
2022-11-05T13:35:19.515Z,44.10
2022-11-05T13:36:47.443Z,43.42
2022-11-05T13:38:14.780Z,43.91
2022-11-05T13:39:26.195Z,44.15
2022-11-05T13:41:24.639Z,43.99
2022-11-05T13:42:55.358Z,44.21
2022-11-05T13:44:34.308Z,43.90
2022-11-05T13:45:53.860Z,43.86
2022-11-05T13:47:22.905Z,43.76
2022-11-05T13:48:32.230Z,43.89
2022-11-05T13:49:41.276Z,43.47
2022-11-05T13:51:24.223Z,43.82
2022-11-05T13:52:37.965Z,44.00
2022-11-05T13:53:42.835Z,44.41
2022-11-05T13:55:08.216Z,44.76
2022-11-05T13:56:54.352Z,44.25
2022-11-05T13:58:01.942Z,44.51
2022-11-05T13:59:18.739Z,45.11
2022-11-05T14:00:23.199Z,45.47
2022-11-05T14:01:27.381Z,44.79
2022-11-05T14:02:55.525Z,44.44
2022-11-05T14:03:57.363Z,45.22
2022-11-05T14:05:01.981Z,44.86
2022-11-05T14:06:06.859Z,45.06
2022-11-05T14:07:24.882Z,45.20
2022-11-05T14:08:29.690Z,45.25
2022-11-05T14:09:35.602Z,45.72
2022-11-05T14:10:38.818Z,46.14
2022-11-05T14:11:43.999Z,45.94
2022-11-05T14:12:52.747Z,46.07
2022-11-05T14:13:58.746Z,45.99
2022-11-05T14:15:08.619Z,46.05
2022-11-05T14:16:16.346Z,45.57
2022-11-05T14:17:28.270Z,46.22
2022-11-05T14:18:38.950Z,45.62
2022-11-05T14:20:06.860Z,46.40
2022-11-05T14:21:26.542Z,46.14
2022-11-05T14:22:33.771Z,46.02
2022-11-05T14:23:40.879Z,46.22
2022-11-05T14:24:44.238Z,46.39
2022-11-05T14:25:45.717Z,46.41
2022-11-05T14:27:02.726Z,46.50
2022-11-05T14:28:37.782Z,46.59
2022-11-05T14:29:43.532Z,46.72
2022-11-05T14:30:47.234Z,46.95
2022-11-05T14:32:08.498Z,46.83
2022-11-05T14:33:24.315Z,47.02
2022-11-05T14:35:04.147Z,46.86